createdAt,value
2024-05-09T00:00:40.831Z,95848.81
2024-05-09T00:03:10.282Z,95851.22
2024-05-09T00:05:40.559Z,95856.63
2024-05-09T00:08:09.490Z,95853.31
2024-05-09T00:10:38.955Z,95847.81
2024-05-09T00:13:08.072Z,95854.22
2024-05-09T00:15:36.031Z,95856.00
2024-05-09T00:18:04.542Z,95847.03
2024-05-09T00:20:38.370Z,95850.44
2024-05-09T00:23:12.295Z,95844.69
2024-05-09T00:25:42.422Z,95833.31
2024-05-09T00:28:09.769Z,95836.53
2024-05-09T00:30:37.533Z,95839.59
2024-05-09T00:33:06.987Z,95837.53
2024-05-09T00:35:35.903Z,95823.09
2024-05-09T00:38:03.712Z,95827.13
2024-05-09T00:40:41.994Z,95834.66
2024-05-09T00:43:14.723Z,95826.22
2024-05-09T00:45:43.526Z,95817.78
2024-05-09T00:48:14.381Z,95813.50
2024-05-09T00:50:44.433Z,95811.72
2024-05-09T00:53:12.149Z,95807.19
2024-05-09T00:55:39.839Z,95807.38
2024-05-09T00:58:08.012Z,95801.13
2024-05-09T01:00:39.413Z,95799.94
2024-05-09T01:03:10.897Z,95796.97
2024-05-09T01:05:40.359Z,95785.94
2024-05-09T01:08:08.428Z,95792.34
2024-05-09T01:10:36.694Z,95793.31
2024-05-09T01:13:05.114Z,95805.75
2024-05-09T01:15:32.976Z,95798.44
2024-05-09T01:18:01.846Z,95799.50
2024-05-09T01:20:39.202Z,95796.19
2024-05-09T01:23:09.912Z,95799.88
2024-05-09T01:25:37.510Z,95807.13
2024-05-09T01:28:04.899Z,95799.69
2024-05-09T01:30:35.417Z,95807.28
2024-05-09T01:33:09.598Z,95803.34
2024-05-09T01:35:41.793Z,95804.25
2024-05-09T01:38:12.319Z,95797.28
2024-05-09T01:40:40.412Z,95794.28
2024-05-09T01:43:09.369Z,95807.03
2024-05-09T01:45:37.492Z,95794.84
2024-05-09T01:48:05.074Z,95790.97
2024-05-09T01:50:38.570Z,95791.09
2024-05-09T01:53:12.649Z,95787.88
2024-05-09T01:55:40.660Z,95783.13
2024-05-09T01:58:08.951Z,95781.03
2024-05-09T02:00:40.607Z,95770.72
2024-05-09T02:03:13.877Z,95786.59
2024-05-09T02:05:44.588Z,95778.16
2024-05-09T02:08:21.741Z,95779.69
2024-05-09T02:10:50.478Z,95774.31
2024-05-09T02:13:18.184Z,95780.94
2024-05-09T02:15:45.447Z,95770.53
2024-05-09T02:18:13.001Z,95775.28
2024-05-09T02:20:41.648Z,95767.13
2024-05-09T02:23:09.753Z,95768.94
2024-05-09T02:25:37.036Z,95770.28
2024-05-09T02:28:04.353Z,95764.00
2024-05-09T02:30:39.409Z,95758.38
2024-05-09T02:33:14.004Z,95747.97
2024-05-09T02:35:43.626Z,95739.09
2024-05-09T02:38:11.870Z,95753.06
2024-05-09T02:40:40.128Z,95739.81
2024-05-09T02:43:09.535Z,95754.03
2024-05-09T02:45:38.016Z,95753.50
2024-05-09T02:48:06.027Z,95753.06
2024-05-09T02:50:38.207Z,95740.81
2024-05-09T02:53:07.978Z,95749.59
2024-05-09T02:55:35.421Z,95757.00
2024-05-09T02:58:02.537Z,95751.19
2024-05-09T03:00:38.188Z,95752.19
2024-05-09T03:03:09.829Z,95756.56
2024-05-09T03:05:39.155Z,95757.56
2024-05-09T03:08:06.680Z,95741.56
2024-05-09T03:10:36.637Z,95762.72
2024-05-09T03:13:14.432Z,95769.63
2024-05-09T03:15:44.937Z,95773.31
2024-05-09T03:18:12.874Z,95771.53
2024-05-09T03:20:40.550Z,95767.31
2024-05-09T03:23:09.595Z,95779.50
2024-05-09T03:25:38.236Z,95788.56
2024-05-09T03:28:05.892Z,95772.94
2024-05-09T03:30:40.153Z,95787.81
2024-05-09T03:33:14.162Z,95786.50
2024-05-09T03:35:42.716Z,95790.06
2024-05-09T03:38:09.952Z,95791.22
2024-05-09T03:40:44.120Z,95791.56
2024-05-09T03:43:11.195Z,95793.47
2024-05-09T03:45:38.276Z,95790.88
2024-05-09T03:48:05.702Z,95796.06
2024-05-09T03:50:35.676Z,95792.03
2024-05-09T03:53:04.087Z,95798.31
2024-05-09T03:55:31.385Z,95796.06
2024-05-09T03:57:58.830Z,95787.38
2024-05-09T04:00:34.500Z,95788.81
2024-05-09T04:03:07.757Z,95789.97
2024-05-09T04:05:38.325Z,95792.03
2024-05-09T04:08:06.190Z,95793.47
2024-05-09T04:10:34.867Z,95795.09
2024-05-09T04:13:03.707Z,95789.53
2024-05-09T04:15:31.669Z,95794.19
2024-05-09T04:17:59.110Z,95796.63
2024-05-09T04:20:37.259Z,95806.03
2024-05-09T04:23:08.738Z,95803.25
2024-05-09T04:25:37.228Z,95808.47
2024-05-09T04:28:04.960Z,95808.22
2024-05-09T04:30:38.044Z,95801.75
2024-05-09T04:33:10.138Z,95804.81
2024-05-09T04:35:39.436Z,95800.66
2024-05-09T04:38:06.954Z,95803.09
2024-05-09T04:40:36.613Z,95805.50
2024-05-09T04:43:14.481Z,95800.94
2024-05-09T04:45:42.022Z,95797.34
2024-05-09T04:48:09.502Z,95796.13
2024-05-09T04:50:39.046Z,95813.41
2024-05-09T04:53:10.767Z,95794.91
2024-05-09T04:55:39.591Z,95799.13
2024-05-09T04:58:10.257Z,95797.34
2024-05-09T05:00:40.054Z,95785.59
2024-05-09T05:03:10.808Z,95774.94
2024-05-09T05:05:41.042Z,95774.50
2024-05-09T05:08:17.028Z,95751.97
2024-05-09T05:10:46.060Z,95756.91
2024-05-09T05:13:20.395Z,95743.16
2024-05-09T05:15:53.799Z,95736.09
2024-05-09T05:18:21.986Z,95734.09
2024-05-09T05:20:49.517Z,95730.31
2024-05-09T05:23:19.687Z,95721.16
2024-05-09T05:25:52.802Z,95709.19
2024-05-09T05:28:20.771Z,95694.94
2024-05-09T05:30:47.943Z,95677.09
2024-05-09T05:33:16.255Z,95647.44
2024-05-09T05:35:43.595Z,95645.28
2024-05-09T05:38:11.321Z,95629.44
2024-05-09T05:40:40.046Z,95596.53
2024-05-09T05:43:09.935Z,95535.97
2024-05-09T05:45:37.775Z,95519.34
2024-05-09T05:48:06.624Z,95512.72
2024-05-09T05:50:37.134Z,95511.19
2024-05-09T05:53:06.898Z,95511.53
2024-05-09T05:55:34.496Z,95527.25
2024-05-09T05:58:02.548Z,95526.13
2024-05-09T06:00:37.351Z,95507.19
2024-05-09T06:03:07.242Z,95489.28
2024-05-09T06:05:35.404Z,95496.59
2024-05-09T06:08:02.702Z,95493.69
2024-05-09T06:10:37.542Z,95480.44
2024-05-09T06:13:07.616Z,95476.31
2024-05-09T06:15:34.947Z,95441.03
2024-05-09T06:18:04.911Z,95416.34
2024-05-09T06:20:36.397Z,95386.00
2024-05-09T06:23:06.651Z,95363.72
2024-05-09T06:25:34.928Z,95317.16
2024-05-09T06:28:02.535Z,95336.22
2024-05-09T06:30:37.239Z,95355.50
2024-05-09T06:33:08.753Z,95373.34
2024-05-09T06:35:36.799Z,95387.00
2024-05-09T06:38:04.574Z,95364.16
2024-05-09T06:40:37.793Z,95341.91
2024-05-09T06:43:18.345Z,95315.16
2024-05-09T06:45:48.479Z,95339.50
2024-05-09T06:48:18.780Z,95338.53
2024-05-09T06:50:46.467Z,95356.59
2024-05-09T06:53:17.412Z,95354.81
2024-05-09T06:55:44.838Z,95357.78
2024-05-09T06:58:12.202Z,95367.41
2024-05-09T07:00:41.506Z,95373.84
2024-05-09T07:03:11.151Z,95361.00
2024-05-09T07:05:39.419Z,95364.00
2024-05-09T07:08:07.187Z,95367.22
2024-05-09T07:10:36.215Z,95329.91
2024-05-09T07:13:11.341Z,95301.41
2024-05-09T07:15:39.053Z,95293.53
2024-05-09T07:18:18.060Z,95302.16
2024-05-09T07:20:47.516Z,95294.34
2024-05-09T07:23:15.702Z,95265.03
2024-05-09T07:25:43.163Z,95237.13
2024-05-09T07:28:13.306Z,95207.28
2024-05-09T07:30:40.535Z,95209.59
2024-05-09T07:33:07.823Z,95198.97
2024-05-09T07:35:35.326Z,95206.47
2024-05-09T07:38:02.507Z,95195.91
2024-05-09T07:40:35.791Z,95197.09
2024-05-09T07:43:05.034Z,95186.78
2024-05-09T07:52:22.959Z,95198.41
2024-05-09T07:53:39.393Z,95183.25
2024-05-09T07:56:10.215Z,95186.13
2024-05-09T07:58:38.935Z,95192.44
2024-05-09T08:01:06.533Z,95201.25
2024-05-09T08:03:34.529Z,95213.25
2024-05-09T08:06:01.912Z,95210.81
2024-05-09T08:08:29.046Z,95211.03
2024-05-09T08:10:56.217Z,95222.38
2024-05-09T08:13:23.546Z,95224.66
2024-05-09T08:15:51.901Z,95208.97
2024-05-09T08:18:20.332Z,95198.84
2024-05-09T08:20:48.973Z,95210.78
2024-05-09T08:23:16.291Z,95209.16
2024-05-09T08:25:43.352Z,95197.31
2024-05-09T08:28:13.537Z,95196.91
2024-05-09T08:30:41.021Z,95204.59
2024-05-09T08:33:08.923Z,95186.72
2024-05-09T08:35:36.581Z,95188.91
2024-05-09T08:38:05.155Z,95171.00
2024-05-09T08:40:35.931Z,95179.63
2024-05-09T08:43:10.462Z,95187.66
2024-05-09T08:45:43.622Z,95193.41
2024-05-09T08:48:16.268Z,95158.78
2024-05-09T08:50:45.154Z,95148.91
2024-05-09T08:53:14.787Z,95109.44
2024-05-09T08:55:43.929Z,95099.94
2024-05-09T08:58:19.877Z,95100.59
2024-05-09T09:00:48.226Z,95112.72
2024-05-09T09:03:19.938Z,94997.75
2024-05-09T09:05:59.661Z,95086.88
2024-05-09T09:08:27.058Z,95088.88
2024-05-09T09:10:58.900Z,95083.16
2024-05-09T09:13:26.920Z,95088.88
2024-05-09T09:15:58.048Z,95059.47
2024-05-09T09:18:30.415Z,95088.28
2024-05-09T09:20:57.816Z,95068.78
2024-05-09T09:23:28.097Z,95079.56
2024-05-09T09:26:01.554Z,94985.50
2024-05-09T09:28:29.677Z,95018.47
2024-05-09T09:31:03.682Z,95011.34
2024-05-09T09:33:36.281Z,94930.00
2024-05-09T09:36:05.011Z,94911.13
2024-05-09T09:38:36.751Z,94902.31
2024-05-09T09:41:07.389Z,94892.28
2024-05-09T09:43:36.584Z,94864.47
2024-05-09T09:46:04.499Z,94933.72
2024-05-09T09:48:33.212Z,94890.91
2024-05-09T09:51:00.725Z,94855.53
2024-05-09T09:53:32.225Z,94846.19
2024-05-09T09:55:59.473Z,94838.44
2024-05-09T09:58:27.744Z,94840.72
2024-05-09T10:00:54.959Z,94849.00
2024-05-09T10:03:22.363Z,94875.50
2024-05-09T10:05:49.750Z,94873.91
2024-05-09T10:08:17.997Z,94880.06
2024-05-09T10:10:48.971Z,94868.44
2024-05-09T10:13:16.528Z,94893.44
2024-05-09T10:15:48.472Z,94855.53
2024-05-09T10:18:16.126Z,94870.13
2024-05-09T10:20:44.813Z,94820.78
2024-05-09T10:23:29.506Z,94831.16
2024-05-09T10:26:05.670Z,94851.56
2024-05-09T10:28:35.269Z,94846.72
2024-05-09T10:31:13.753Z,94847.34
2024-05-09T10:33:52.477Z,94846.63
2024-05-09T10:36:24.859Z,94855.38
2024-05-09T10:38:53.382Z,94846.97
2024-05-09T10:41:21.497Z,94831.06
2024-05-09T10:43:49.415Z,94831.06
2024-05-09T10:46:16.963Z,94817.41
2024-05-09T10:48:44.784Z,94830.03
2024-05-09T10:51:12.268Z,94829.88
2024-05-09T10:53:46.888Z,94819.78
2024-05-09T10:56:14.889Z,94819.91
2024-05-09T10:58:42.105Z,94813.19
2024-05-09T11:01:10.397Z,94806.38
2024-05-09T11:03:38.990Z,94812.97
2024-05-09T11:06:07.301Z,94803.97
2024-05-09T11:08:35.500Z,94803.63
2024-05-09T11:11:07.481Z,94790.78
2024-05-09T11:13:39.647Z,94783.47
2024-05-09T11:16:19.420Z,94785.19
2024-05-09T11:18:55.556Z,94783.69
2024-05-09T11:21:23.039Z,94793.97
2024-05-09T11:23:50.427Z,94785.16
2024-05-09T11:26:20.801Z,94787.28
2024-05-09T11:28:48.249Z,94787.00
2024-05-09T11:31:15.530Z,94784.56
2024-05-09T11:33:47.578Z,94777.78
2024-05-09T11:36:15.291Z,94780.03
2024-05-09T11:38:43.011Z,94775.03
2024-05-09T11:41:17.354Z,94759.47
2024-05-09T11:43:44.624Z,94763.72
2024-05-09T11:46:12.647Z,94755.66
2024-05-09T11:48:40.324Z,94755.28
2024-05-09T11:51:07.918Z,94758.78
2024-05-09T11:53:35.031Z,94746.38
2024-05-09T11:56:02.263Z,94746.72
2024-05-09T11:58:34.626Z,94747.72
2024-05-09T12:01:03.930Z,94734.38
2024-05-09T12:03:31.562Z,94738.00
2024-05-09T12:05:59.173Z,94739.91
2024-05-09T12:08:26.716Z,94734.16
2024-05-09T12:10:54.092Z,94725.72
2024-05-09T12:13:21.486Z,94718.03
2024-05-09T12:15:48.821Z,94719.31
2024-05-09T12:18:16.008Z,94724.19
2024-05-09T12:20:43.383Z,94719.91
2024-05-09T12:23:10.864Z,94717.84
2024-05-09T12:25:39.535Z,94715.59
2024-05-09T12:28:07.977Z,94723.00
2024-05-09T12:30:39.791Z,94709.50
2024-05-09T12:33:09.869Z,94707.34
2024-05-09T12:35:37.706Z,94709.25
2024-05-09T12:38:05.324Z,94709.28
2024-05-09T12:40:36.825Z,94703.47
2024-05-09T12:43:10.279Z,94692.69
2024-05-09T12:45:38.973Z,94687.25
2024-05-09T12:48:11.752Z,94688.78
2024-05-09T12:50:40.420Z,94687.16
2024-05-09T12:53:07.765Z,94691.72
2024-05-09T12:55:43.893Z,94697.72
2024-05-09T12:58:17.325Z,94687.94
2024-05-09T13:00:45.498Z,94680.00
2024-05-09T13:03:13.119Z,94690.44
2024-05-09T13:05:45.369Z,94686.56
2024-05-09T13:08:13.606Z,94674.28
2024-05-09T13:10:41.079Z,94675.34
2024-05-09T13:13:10.266Z,94666.78
2024-05-09T13:15:37.861Z,94665.91
2024-05-09T13:18:05.997Z,94664.75
2024-05-09T13:20:35.492Z,94674.09
2024-05-09T13:23:08.243Z,94670.97
2024-05-09T13:25:38.033Z,94674.03
2024-05-09T13:28:06.262Z,94660.81
2024-05-09T13:30:39.701Z,94673.97
2024-05-09T13:33:13.570Z,94669.28
2024-05-09T13:35:46.804Z,94665.28
2024-05-09T13:38:17.232Z,94662.16
2024-05-09T13:40:44.849Z,94658.00
2024-05-09T13:43:12.383Z,94660.34
2024-05-09T13:45:40.054Z,94658.59
2024-05-09T13:48:09.794Z,94654.63
2024-05-09T13:50:37.623Z,94653.72
2024-05-09T13:53:06.983Z,94645.84
2024-05-09T13:55:37.766Z,94641.41
2024-05-09T13:58:05.410Z,94651.56
2024-05-09T14:00:43.664Z,94645.66
2024-05-09T14:03:16.346Z,94644.81
2024-05-09T14:05:44.786Z,94640.91
2024-05-09T14:08:12.262Z,94640.13
2024-05-09T14:10:44.506Z,94639.69
2024-05-09T14:13:13.041Z,94636.56
2024-05-09T14:15:40.929Z,94641.78
2024-05-09T14:18:12.392Z,94643.25
2024-05-09T14:20:41.341Z,94638.94
2024-05-09T14:23:08.507Z,94638.16
2024-05-09T14:25:39.920Z,94635.56
2024-05-09T14:28:09.861Z,94632.72
2024-05-09T14:30:38.596Z,94628.28
2024-05-09T14:33:07.786Z,94630.22
2024-05-09T14:35:37.833Z,94631.72
2024-05-09T14:38:05.458Z,94624.72
2024-05-09T14:40:41.219Z,94627.06
2024-05-09T14:43:15.229Z,94630.28
2024-05-09T14:45:43.859Z,94627.25
2024-05-09T14:48:11.959Z,94623.91
2024-05-09T14:50:40.650Z,94617.41
2024-05-09T14:53:09.881Z,94630.06
2024-05-09T14:55:39.840Z,94632.84
2024-05-09T14:58:08.796Z,94623.44
2024-05-09T15:00:41.297Z,94621.47
2024-05-09T15:03:11.882Z,94618.94
2024-05-09T15:05:39.216Z,94613.25
2024-05-09T15:08:07.485Z,94613.75
2024-05-09T15:10:36.514Z,94615.03
2024-05-09T15:13:07.136Z,94610.41
2024-05-09T15:15:36.210Z,94612.63
2024-05-09T15:18:04.928Z,94621.41
2024-05-09T15:20:36.027Z,94618.78
2024-05-09T15:23:06.053Z,94614.47
2024-05-09T15:25:34.329Z,94612.13
2024-05-09T15:28:01.724Z,94609.94
2024-05-09T15:30:32.124Z,94617.25
2024-05-09T15:33:03.681Z,94615.97
2024-05-09T15:35:31.357Z,94605.06
2024-05-09T15:37:58.612Z,94606.81
2024-05-09T15:40:35.161Z,94604.75
2024-05-09T15:43:07.785Z,94604.84
2024-05-09T15:45:35.704Z,94606.66
2024-05-09T15:48:04.220Z,94602.97
2024-05-09T15:50:37.435Z,94604.28
2024-05-09T15:53:09.091Z,94602.78
2024-05-09T15:55:37.049Z,94601.22
2024-05-09T15:58:04.883Z,94605.19
2024-05-09T16:00:38.455Z,94601.22
2024-05-09T16:03:10.096Z,94595.25
2024-05-09T16:05:38.038Z,94603.69
2024-05-09T16:08:06.658Z,94597.22
2024-05-09T16:10:34.942Z,94599.50
2024-05-09T16:13:03.449Z,94603.16
2024-05-09T16:15:31.277Z,94600.16
2024-05-09T16:17:58.679Z,94608.75
2024-05-09T16:20:34.850Z,94601.34
2024-05-09T16:23:08.072Z,94592.88
2024-05-09T16:25:35.735Z,94600.41
2024-05-09T16:28:07.032Z,94609.47
2024-05-09T16:30:37.064Z,94613.97
2024-05-09T16:33:05.519Z,94612.31
2024-05-09T16:35:34.865Z,94616.53
2024-05-09T16:38:03.528Z,94628.84
2024-05-09T16:40:37.804Z,94636.25
2024-05-09T16:43:08.849Z,94634.66
2024-05-09T16:45:36.826Z,94648.13
2024-05-09T16:48:04.722Z,94642.00
2024-05-09T16:50:34.510Z,94646.97
2024-05-09T16:53:04.151Z,94649.34
2024-05-09T16:55:32.483Z,94659.44
2024-05-09T16:57:59.774Z,94658.09
2024-05-09T17:00:36.623Z,94653.13
2024-05-09T17:03:10.037Z,94652.16
2024-05-09T17:05:38.305Z,94662.16
2024-05-09T17:08:06.256Z,94675.25
2024-05-09T17:10:35.108Z,94664.69
2024-05-09T17:13:04.689Z,94663.31
2024-05-09T17:15:33.548Z,94665.69
2024-05-09T17:18:01.527Z,94657.97
2024-05-09T17:20:33.628Z,94667.28
2024-05-09T17:23:05.766Z,94677.19
2024-05-09T17:25:34.354Z,94679.13
2024-05-09T17:28:07.649Z,94690.06
2024-05-09T17:30:37.775Z,94694.69
2024-05-09T17:33:08.221Z,94686.63
2024-05-09T17:35:36.769Z,94688.91
2024-05-09T17:38:05.580Z,94702.53
2024-05-09T17:40:36.040Z,94707.78
2024-05-09T17:43:06.647Z,94706.97
2024-05-09T17:45:37.792Z,94723.22
2024-05-09T17:48:05.538Z,94732.75
2024-05-09T17:50:36.051Z,94743.13
2024-05-09T17:53:08.694Z,94742.75
2024-05-09T17:55:36.415Z,94734.94
2024-05-09T17:58:04.841Z,94738.22
2024-05-09T18:00:38.207Z,94756.13
2024-05-09T18:03:09.028Z,94750.81
2024-05-09T18:05:37.476Z,94750.97
2024-05-09T18:08:06.334Z,94750.31
2024-05-09T18:10:37.779Z,94748.22
2024-05-09T18:13:13.664Z,94743.03
2024-05-09T18:15:41.261Z,94749.84
2024-05-09T18:18:09.563Z,94758.22
2024-05-09T18:20:42.649Z,94755.66
2024-05-09T18:23:14.647Z,94766.16
2024-05-09T18:25:43.130Z,94755.31
2024-05-09T18:28:10.518Z,94761.06
2024-05-09T18:30:38.021Z,94770.69
2024-05-09T18:33:07.792Z,94784.56
2024-05-09T18:35:36.626Z,94797.41
2024-05-09T18:38:05.061Z,94795.34
2024-05-09T18:40:36.131Z,94784.72
2024-05-09T18:43:07.486Z,94789.38
2024-05-09T18:45:39.289Z,94797.22
2024-05-09T18:48:08.519Z,94815.91
2024-05-09T18:50:39.421Z,94821.31
2024-05-09T18:53:10.851Z,94821.63
2024-05-09T18:55:38.744Z,94829.09
2024-05-09T18:58:05.903Z,94833.34
2024-05-09T19:00:36.960Z,94834.69
2024-05-09T19:03:10.445Z,94835.53
2024-05-09T19:05:40.679Z,94840.78
2024-05-09T19:08:08.677Z,94850.00
2024-05-09T19:10:37.718Z,94865.63
2024-05-09T19:13:09.333Z,94858.00
2024-05-09T19:15:40.382Z,94850.97
2024-05-09T19:18:08.317Z,94854.00
2024-05-09T19:20:36.858Z,94861.38
2024-05-09T19:23:06.426Z,94860.00
2024-05-09T19:25:34.780Z,94848.97
2024-05-09T19:28:02.203Z,94863.59
2024-05-09T19:30:37.759Z,94863.66
2024-05-09T19:33:09.595Z,94871.88
2024-05-09T19:35:37.567Z,94888.13
2024-05-09T19:38:05.427Z,94896.38
2024-05-09T19:40:34.259Z,94899.78
2024-05-09T19:43:03.307Z,94910.03
2024-05-09T19:45:32.540Z,94931.88
2024-05-09T19:48:00.193Z,94931.84
2024-05-09T19:50:36.830Z,94920.63
2024-05-09T19:53:10.203Z,94911.22
2024-05-09T19:55:37.851Z,94921.63
2024-05-09T19:58:07.698Z,94918.25
2024-05-09T20:00:38.029Z,94929.88
2024-05-09T20:03:07.790Z,94936.88
2024-05-09T20:05:35.448Z,94945.09
2024-05-09T20:08:03.002Z,94940.28
2024-05-09T20:10:33.036Z,94948.88
2024-05-09T20:13:02.747Z,94947.28
2024-05-09T20:15:31.105Z,94950.09
2024-05-09T20:17:58.577Z,94964.66
2024-05-09T20:20:33.778Z,94986.22
2024-05-09T20:23:06.460Z,95013.34
2024-05-09T20:25:33.611Z,95014.00
2024-05-09T20:28:01.039Z,95009.63
2024-05-09T20:30:32.391Z,95003.84
2024-05-09T20:33:05.462Z,95017.00
2024-05-09T20:35:34.208Z,95004.97
2024-05-09T20:38:02.692Z,95014.88
2024-05-09T20:40:35.161Z,94988.47
2024-05-09T20:43:06.670Z,95025.47
2024-05-09T20:45:34.770Z,95020.28
2024-05-09T20:48:02.570Z,95030.06
2024-05-09T20:50:37.249Z,95033.66
2024-05-09T20:53:09.823Z,95030.81
2024-05-09T20:55:37.146Z,95041.56
2024-05-09T20:58:04.484Z,95047.38
2024-05-09T21:00:39.912Z,95028.72
2024-05-09T21:03:11.067Z,95046.66
2024-05-09T21:05:38.946Z,95057.28
2024-05-09T21:08:06.906Z,95064.44
2024-05-09T21:10:35.268Z,95066.63
2024-05-09T21:13:03.610Z,95054.25
2024-05-09T21:15:31.855Z,95060.22
2024-05-09T21:17:59.447Z,95060.19
2024-05-09T21:22:57.643Z,95080.38
2024-05-09T21:25:24.895Z,95081.53
2024-05-09T21:27:52.150Z,95097.63
2024-05-09T21:30:32.158Z,95131.53
2024-05-09T21:33:13.374Z,95142.84
2024-05-09T21:35:45.286Z,95130.81
2024-05-09T21:38:14.236Z,95136.41
2024-05-09T21:40:42.202Z,95140.28
2024-05-09T21:43:09.540Z,95147.88
2024-05-09T21:45:37.283Z,95145.19
2024-05-09T21:48:05.811Z,95143.13
2024-05-09T21:50:39.709Z,95140.91
2024-05-09T21:53:10.040Z,95136.78
2024-05-09T21:55:37.271Z,95155.50
2024-05-09T21:58:04.644Z,95169.09
2024-05-09T22:00:36.637Z,95180.44
2024-05-09T22:03:10.517Z,95187.66
2024-05-09T22:05:42.075Z,95191.41
2024-05-09T22:08:10.044Z,95193.38
2024-05-09T22:10:37.502Z,95190.63
2024-05-09T22:13:06.363Z,95190.78
2024-05-09T22:15:39.323Z,95208.84
2024-05-09T22:18:11.034Z,95217.78
2024-05-09T22:20:45.314Z,95203.50
2024-05-09T22:23:13.681Z,95213.00
2024-05-09T22:25:40.944Z,95221.91
2024-05-09T22:28:08.287Z,95213.50
2024-05-09T22:30:38.784Z,95229.28
2024-05-09T22:33:11.876Z,95241.25
2024-05-09T22:35:40.428Z,95246.69
2024-05-09T22:38:08.046Z,95253.03
2024-05-09T22:40:45.408Z,95256.94
2024-05-09T22:43:24.011Z,95258.66
2024-05-09T22:45:55.670Z,95254.53
2024-05-09T22:48:24.549Z,95254.81
2024-05-09T22:50:52.189Z,95254.97
2024-05-09T22:53:19.467Z,95253.34
2024-05-09T22:55:46.532Z,95252.84
2024-05-09T22:58:13.641Z,95250.31
2024-05-09T23:00:40.789Z,95249.22
2024-05-09T23:03:07.954Z,95253.16
2024-05-09T23:05:35.117Z,95239.50
2024-05-09T23:08:03.478Z,95264.72
2024-05-09T23:10:36.111Z,95268.78
2024-05-09T23:13:06.777Z,95278.16
2024-05-09T23:15:34.779Z,95279.34
2024-05-09T23:18:01.971Z,95284.44
2024-05-09T23:20:36.413Z,95285.47
2024-05-09T23:23:07.077Z,95276.09
2024-05-09T23:25:34.753Z,95294.94
2024-05-09T23:28:02.036Z,95283.63
2024-05-09T23:30:37.052Z,95286.38
2024-05-09T23:33:07.546Z,95273.06
2024-05-09T23:35:34.899Z,95279.97
2024-05-09T23:38:02.030Z,95269.97
2024-05-09T23:42:59.150Z,95270.75
2024-05-09T23:45:26.313Z,95279.50
2024-05-09T23:47:53.744Z,95266.50
2024-05-09T23:50:26.752Z,95274.91
2024-05-09T23:53:00.752Z,95266.16
2024-05-09T23:55:28.714Z,95271.31
2024-05-09T23:57:55.876Z,95262.69
